createdAt,value
2019-02-02T00:03:03.414Z,89.14
2019-02-02T00:06:08.909Z,89.21
2019-02-02T00:09:13.743Z,88.78
2019-02-02T00:12:18.485Z,88.44
2019-02-02T00:15:23.235Z,88.14
2019-02-02T00:18:27.655Z,87.74
2019-02-02T00:21:32.366Z,87.63
2019-02-02T00:24:36.865Z,87.68
2019-02-02T00:27:41.853Z,88.15
2019-02-02T00:30:46.473Z,87.76
2019-02-02T00:33:50.934Z,87.38
2019-02-02T00:36:55.393Z,87.14
2019-02-02T00:39:59.835Z,86.10
2019-02-02T00:43:04.716Z,85.24
2019-02-02T00:46:09.236Z,85.31
2019-02-02T00:49:14.029Z,84.82
2019-02-02T00:52:18.477Z,84.95
2019-02-02T00:55:22.997Z,84.17
2019-02-02T00:58:27.445Z,83.03
2019-02-02T01:01:31.886Z,84.17
2019-02-02T01:04:36.334Z,83.67
2019-02-02T01:07:40.780Z,83.62
2019-02-02T01:10:45.500Z,83.67
2019-02-02T01:13:49.945Z,83.46
2019-02-02T01:16:54.383Z,84.50
2019-02-02T01:19:59.070Z,84.97
2019-02-02T01:23:03.577Z,85.27
2019-02-02T01:26:08.151Z,84.33
2019-02-02T01:29:12.956Z,84.41
2019-02-02T01:32:17.686Z,84.97
2019-02-02T01:35:22.617Z,83.77
2019-02-02T01:38:27.060Z,84.54
2019-02-02T01:41:31.514Z,83.67
2019-02-02T01:44:35.939Z,84.01
2019-02-02T01:47:40.380Z,84.38
2019-02-02T01:50:45.144Z,84.35
2019-02-02T01:53:49.585Z,83.94
2019-02-02T01:56:54.032Z,83.64
2019-02-02T01:59:58.481Z,83.65
2019-02-02T02:03:03.087Z,83.93
2019-02-02T02:06:07.777Z,84.42
2019-02-02T02:09:12.608Z,85.07
2019-02-02T02:12:17.047Z,85.19
2019-02-02T02:15:21.868Z,85.38
2019-02-02T02:18:26.319Z,84.90
2019-02-02T02:21:30.758Z,85.13
2019-02-02T02:24:35.191Z,85.59
2019-02-02T02:27:39.699Z,84.27
2019-02-02T02:30:47.243Z,85.74
2019-02-02T02:33:50.309Z,86.33
2019-02-02T02:36:54.751Z,86.86
2019-02-02T02:39:59.190Z,86.33
2019-02-02T02:43:03.935Z,86.04
2019-02-02T02:46:08.374Z,85.53
2019-02-02T02:49:12.808Z,85.04
2019-02-02T02:52:17.511Z,85.56
2019-02-02T02:55:22.030Z,85.71
2019-02-02T02:58:26.465Z,85.49
2019-02-02T03:01:30.907Z,85.09
2019-02-02T03:04:35.351Z,84.98
2019-02-02T03:07:39.861Z,85.38
2019-02-02T03:10:44.696Z,85.41
2019-02-02T03:13:49.115Z,85.98
2019-02-02T03:16:53.633Z,84.87
2019-02-02T03:19:58.059Z,84.94
2019-02-02T03:23:02.500Z,84.45
2019-02-02T03:26:06.941Z,85.03
2019-02-02T03:29:11.717Z,85.43
2019-02-02T03:32:16.167Z,85.59
2019-02-02T03:35:23.984Z,85.62
2019-02-02T03:38:28.683Z,85.62
2019-02-02T03:41:33.112Z,86.24
2019-02-02T03:44:37.558Z,86.65
2019-02-02T03:47:42.219Z,86.56
2019-02-02T03:50:46.629Z,86.87
2019-02-02T03:53:51.067Z,86.40
2019-02-02T03:56:55.828Z,86.42
2019-02-02T04:00:00.268Z,86.23
2019-02-02T04:03:05.100Z,85.70
2019-02-02T04:06:09.516Z,85.70
2019-02-02T04:09:14.325Z,86.14
2019-02-02T04:12:18.757Z,86.77
2019-02-02T04:15:23.498Z,86.62
2019-02-02T04:18:27.935Z,86.42
2019-02-02T04:21:32.370Z,85.82
2019-02-02T04:24:36.815Z,85.13
2019-02-02T04:27:41.606Z,84.67
2019-02-02T04:30:46.331Z,84.71
2019-02-02T04:33:50.774Z,84.61
2019-02-02T04:36:55.211Z,84.95
2019-02-02T04:39:59.666Z,85.03
2019-02-02T04:43:04.118Z,85.16
2019-02-02T04:46:08.633Z,85.52
2019-02-02T04:49:13.391Z,84.78
2019-02-02T04:52:18.117Z,85.59
2019-02-02T04:55:22.633Z,85.93
2019-02-02T04:58:27.070Z,85.86
2019-02-02T05:01:31.500Z,85.99
2019-02-02T05:04:35.948Z,85.91
2019-02-02T05:07:40.397Z,86.05
2019-02-02T05:10:45.173Z,85.76
2019-02-02T05:13:49.619Z,86.29
2019-02-02T05:16:54.319Z,86.04
2019-02-02T05:19:59.062Z,86.30
2019-02-02T05:23:03.790Z,86.44
2019-02-02T05:26:08.297Z,86.37
2019-02-02T05:29:12.741Z,85.90
2019-02-02T05:32:17.469Z,85.55
2019-02-02T05:35:22.304Z,85.46
2019-02-02T05:38:26.815Z,85.96
2019-02-02T05:41:31.556Z,86.12
2019-02-02T05:44:36.283Z,86.37
2019-02-02T05:47:40.724Z,86.54
2019-02-02T05:50:45.155Z,86.60
2019-02-02T05:53:49.866Z,86.84
2019-02-02T05:56:54.296Z,86.47
2019-02-02T05:59:59.046Z,86.89
2019-02-02T06:03:03.752Z,87.40
2019-02-02T06:06:08.188Z,87.27
2019-02-02T06:09:12.904Z,87.45
2019-02-02T06:12:17.338Z,87.39
2019-02-02T06:15:22.074Z,88.21
2019-02-02T06:18:26.794Z,88.60
2019-02-02T06:21:31.227Z,88.87
2019-02-02T06:24:35.942Z,89.32
2019-02-02T06:27:40.674Z,89.09
2019-02-02T06:30:45.112Z,88.63
2019-02-02T06:33:49.566Z,88.67
2019-02-02T06:36:54.247Z,88.79
2019-02-02T06:39:58.694Z,88.49
2019-02-02T06:43:03.127Z,88.78
2019-02-02T06:46:07.829Z,88.73
2019-02-02T06:49:12.556Z,88.43
2019-02-02T06:52:17.059Z,88.79
2019-02-02T06:55:21.821Z,88.34
2019-02-02T06:58:26.544Z,88.36
2019-02-02T07:01:30.996Z,88.37
2019-02-02T07:04:35.461Z,89.08
2019-02-02T07:07:39.897Z,90.14
2019-02-02T07:10:44.648Z,90.59
2019-02-02T07:13:49.378Z,90.27
2019-02-02T07:16:53.811Z,90.23
2019-02-02T07:19:58.249Z,90.36
2019-02-02T07:23:02.698Z,90.47
2019-02-02T07:26:07.483Z,90.38
2019-02-02T07:29:12.216Z,90.21
2019-02-02T07:32:16.645Z,89.26
2019-02-02T07:35:21.468Z,88.97
2019-02-02T07:38:25.902Z,88.45
2019-02-02T07:41:30.633Z,88.33
2019-02-02T07:44:35.126Z,88.20
2019-02-02T07:47:39.883Z,87.52
2019-02-02T07:50:44.325Z,86.69
2019-02-02T07:53:48.769Z,85.84
2019-02-02T07:56:53.213Z,86.29
2019-02-02T07:59:57.984Z,86.53
2019-02-02T08:03:02.861Z,86.48
2019-02-02T08:06:07.553Z,85.95
2019-02-02T08:09:12.226Z,85.96
2019-02-02T08:12:19.434Z,85.97
2019-02-02T08:15:30.307Z,84.71
2019-02-02T08:18:34.739Z,85.10
2019-02-02T08:21:39.180Z,85.60
2019-02-02T08:24:44.479Z,86.06
2019-02-02T08:27:49.271Z,87.70
2019-02-02T08:30:53.999Z,88.49
2019-02-02T08:33:58.438Z,88.95
2019-02-02T08:37:02.881Z,88.57
2019-02-02T08:40:14.888Z,88.10
2019-02-02T08:43:19.407Z,88.04
2019-02-02T08:46:23.891Z,87.40
2019-02-02T08:49:28.397Z,86.95
2019-02-02T08:52:32.834Z,87.66
2019-02-02T08:55:37.450Z,87.69
2019-02-02T08:58:41.893Z,88.82
2019-02-02T09:01:48.213Z,85.65
2019-02-02T09:04:52.791Z,84.00
2019-02-02T09:07:57.233Z,84.90
2019-02-02T09:11:01.953Z,84.45
2019-02-02T09:14:06.693Z,84.89
2019-02-02T09:17:11.132Z,85.12
2019-02-02T09:20:17.046Z,84.71
2019-02-02T09:23:21.488Z,83.45
2019-02-02T09:26:26.331Z,82.80
2019-02-02T09:29:30.764Z,84.54
2019-02-02T09:32:35.472Z,83.48
2019-02-02T09:35:39.912Z,84.83
2019-02-02T09:38:44.626Z,85.25
2019-02-02T09:41:49.069Z,87.20
2019-02-02T09:44:53.583Z,86.00
2019-02-02T09:47:58.113Z,83.99
2019-02-02T09:51:02.546Z,84.00
2019-02-02T09:54:09.095Z,82.69
2019-02-02T09:57:13.424Z,82.94
2019-02-02T10:00:21.938Z,83.18
2019-02-02T10:03:26.679Z,75.41
2019-02-02T10:06:31.136Z,70.78
2019-02-02T10:09:37.833Z,64.61
2019-02-02T10:12:42.219Z,60.67
2019-02-02T10:15:46.659Z,54.35
2019-02-02T10:18:51.105Z,51.71
2019-02-02T10:21:55.545Z,50.91
2019-02-02T10:25:00.404Z,48.36
2019-02-02T10:28:06.365Z,46.54
2019-02-02T10:31:10.801Z,42.81
2019-02-02T10:34:15.257Z,43.67
2019-02-02T10:37:20.053Z,41.96
2019-02-02T10:40:24.491Z,41.68
2019-02-02T10:43:29.198Z,40.22
2019-02-02T10:46:33.639Z,40.24
2019-02-02T10:49:38.099Z,39.19
2019-02-02T10:52:42.535Z,37.75
2019-02-02T10:55:46.989Z,39.16
2019-02-02T10:58:51.474Z,40.17
2019-02-02T11:01:55.887Z,41.02
2019-02-02T11:05:00.406Z,44.20
2019-02-02T11:08:06.363Z,47.34
2019-02-02T11:11:11.091Z,50.46
2019-02-02T11:14:15.809Z,54.07
2019-02-02T11:17:20.245Z,58.16
2019-02-02T11:20:30.850Z,61.22
2019-02-02T11:23:35.354Z,64.80
2019-02-02T11:26:39.768Z,67.22
2019-02-02T11:29:44.233Z,68.51
2019-02-02T11:32:48.790Z,70.05
2019-02-02T11:35:53.509Z,68.13
2019-02-02T11:38:59.648Z,67.02
2019-02-02T11:42:04.617Z,67.34
2019-02-02T11:45:12.668Z,68.12
2019-02-02T11:48:17.106Z,68.43
2019-02-02T11:51:21.873Z,68.80
2019-02-02T11:54:26.323Z,66.11
2019-02-02T11:57:31.026Z,62.39
2019-02-02T12:00:41.829Z,59.12
2019-02-02T12:03:46.273Z,54.09
2019-02-02T12:06:51.060Z,52.49
2019-02-02T12:09:55.515Z,50.45
2019-02-02T12:12:59.954Z,50.62
2019-02-02T12:16:04.403Z,52.08
2019-02-02T12:19:09.234Z,58.59
2019-02-02T12:22:13.688Z,61.67
2019-02-02T12:25:18.210Z,60.70
2019-02-02T12:28:22.652Z,58.88
2019-02-02T12:31:27.165Z,58.72
2019-02-02T12:34:31.614Z,58.24
2019-02-02T12:37:36.126Z,59.71
2019-02-02T12:40:40.847Z,62.41
2019-02-02T12:43:45.582Z,62.88
2019-02-02T12:46:50.020Z,66.27
2019-02-02T12:49:54.725Z,65.96
2019-02-02T12:52:59.168Z,68.08
2019-02-02T12:56:03.887Z,69.79
2019-02-02T12:59:08.451Z,70.95
2019-02-02T13:02:12.945Z,70.77
2019-02-02T13:05:21.028Z,70.82
2019-02-02T13:08:25.774Z,71.34
2019-02-02T13:11:30.220Z,71.49
2019-02-02T13:14:34.649Z,71.02
2019-02-02T13:17:39.356Z,72.99
2019-02-02T13:20:43.850Z,75.17
2019-02-02T13:23:48.285Z,74.91
2019-02-02T13:26:53.031Z,73.43
2019-02-02T13:29:57.764Z,73.09
2019-02-02T13:33:02.501Z,72.02
2019-02-02T13:36:07.532Z,70.61
2019-02-02T13:39:12.299Z,69.79
2019-02-02T13:42:17.090Z,69.28
2019-02-02T13:45:23.241Z,68.81
2019-02-02T13:48:27.987Z,69.03
2019-02-02T13:51:32.423Z,69.81
2019-02-02T13:54:36.916Z,69.82
2019-02-02T13:57:41.361Z,70.88
2019-02-02T14:00:46.092Z,70.91
2019-02-02T14:03:50.586Z,71.06
2019-02-02T14:06:55.034Z,71.09
2019-02-02T14:09:59.773Z,70.90
2019-02-02T14:13:04.510Z,70.83
2019-02-02T14:16:09.239Z,69.84
2019-02-02T14:19:13.776Z,70.77
2019-02-02T14:22:18.218Z,71.66
2019-02-02T14:25:22.725Z,72.16
2019-02-02T14:28:28.751Z,72.12
2019-02-02T14:31:33.522Z,72.49
2019-02-02T14:34:40.231Z,71.77
2019-02-02T14:37:44.399Z,72.54
2019-02-02T14:40:49.131Z,71.95
2019-02-02T14:43:55.894Z,72.31
2019-02-02T14:47:00.077Z,73.57
2019-02-02T14:50:07.819Z,73.78
2019-02-02T14:53:12.559Z,73.81
2019-02-02T14:56:16.988Z,74.68
2019-02-02T14:59:21.430Z,74.05
2019-02-02T15:02:25.856Z,73.91
2019-02-02T15:05:42.162Z,75.00
2019-02-02T15:08:36.822Z,74.82
2019-02-02T15:11:41.557Z,74.15
2019-02-02T15:14:46.290Z,74.60
2019-02-02T15:17:50.799Z,74.79
2019-02-02T15:20:55.235Z,75.10
2019-02-02T15:23:59.673Z,75.33
2019-02-02T15:27:04.403Z,76.15
2019-02-02T15:30:13.394Z,76.42
2019-02-02T15:33:18.151Z,76.49
2019-02-02T15:36:22.582Z,76.60
2019-02-02T15:39:27.031Z,76.92
2019-02-02T15:42:31.461Z,77.41
2019-02-02T15:45:36.154Z,76.66
2019-02-02T15:48:42.557Z,76.99
2019-02-02T15:51:46.749Z,76.58
2019-02-02T15:54:51.477Z,76.40
2019-02-02T15:57:56.310Z,76.76
2019-02-02T16:01:01.046Z,76.92
2019-02-02T16:04:05.562Z,76.13
2019-02-02T16:07:10.294Z,76.94
2019-02-02T16:10:18.809Z,77.58
2019-02-02T16:13:23.239Z,78.04
2019-02-02T16:16:27.688Z,77.93
2019-02-02T16:19:32.403Z,77.49
2019-02-02T16:22:37.128Z,77.65
2019-02-02T16:25:41.567Z,78.08
2019-02-02T16:28:45.996Z,77.78
2019-02-02T16:31:50.701Z,78.30
2019-02-02T16:34:55.427Z,78.58
2019-02-02T16:37:59.858Z,78.42
2019-02-02T16:41:04.583Z,78.65
2019-02-02T16:44:09.084Z,77.90
2019-02-02T16:47:13.841Z,77.38
2019-02-02T16:50:22.058Z,77.21
2019-02-02T16:53:26.484Z,77.50
2019-02-02T16:56:31.208Z,77.84
2019-02-02T16:59:36.124Z,77.61
2019-02-02T17:02:40.557Z,77.80
2019-02-02T17:05:45.398Z,77.42
2019-02-02T17:08:49.827Z,77.22
2019-02-02T17:11:54.556Z,76.27
2019-02-02T17:14:59.003Z,77.30
2019-02-02T17:18:03.499Z,78.29
2019-02-02T17:21:08.232Z,77.71
2019-02-02T17:24:12.663Z,77.95
2019-02-02T17:27:17.106Z,78.99
2019-02-02T17:30:26.158Z,78.80
2019-02-02T17:33:30.628Z,78.49
2019-02-02T17:36:35.066Z,78.57
2019-02-02T17:39:39.495Z,78.14
2019-02-02T17:42:44.425Z,78.91
2019-02-02T17:45:48.871Z,78.76
2019-02-02T17:48:53.304Z,78.64
2019-02-02T17:51:57.999Z,79.00
2019-02-02T17:55:02.726Z,77.58
2019-02-02T17:58:07.164Z,78.04
2019-02-02T18:01:11.603Z,78.50
2019-02-02T18:04:16.038Z,79.00
2019-02-02T18:07:20.735Z,78.56
2019-02-02T18:10:25.167Z,79.31
2019-02-02T18:13:29.892Z,79.56
2019-02-02T18:16:34.335Z,79.98
2019-02-02T18:19:38.769Z,79.78
2019-02-02T18:22:43.285Z,80.01
2019-02-02T18:25:47.714Z,80.28
2019-02-02T18:28:53.961Z,80.16
2019-02-02T18:31:58.480Z,80.84
2019-02-02T18:35:02.924Z,81.06
2019-02-02T18:38:07.736Z,81.99
2019-02-02T18:41:12.172Z,81.90
2019-02-02T18:44:16.606Z,82.17
2019-02-02T18:47:21.315Z,82.89
2019-02-02T18:50:26.146Z,82.78
2019-02-02T18:53:30.876Z,82.98
2019-02-02T18:56:35.323Z,83.42
2019-02-02T18:59:39.814Z,83.49
2019-02-02T19:02:44.274Z,84.00
2019-02-02T19:05:48.978Z,83.71
2019-02-02T19:08:53.500Z,83.70
2019-02-02T19:11:57.940Z,83.79
2019-02-02T19:15:02.600Z,83.76
2019-02-02T19:18:08.271Z,83.87
2019-02-02T19:21:13.039Z,84.21
2019-02-02T19:24:17.781Z,84.58
2019-02-02T19:27:22.517Z,84.79
2019-02-02T19:30:33.274Z,84.19
2019-02-02T19:33:38.135Z,84.08
2019-02-02T19:36:42.513Z,84.17
2019-02-02T19:39:47.268Z,84.35
2019-02-02T19:42:51.996Z,84.33
2019-02-02T19:45:56.731Z,84.53
2019-02-02T19:49:01.168Z,84.61
2019-02-02T19:52:05.994Z,85.15
2019-02-02T19:55:14.690Z,85.08
2019-02-02T19:58:16.892Z,84.76
2019-02-02T20:01:21.326Z,84.89
2019-02-02T20:04:25.820Z,84.54
2019-02-02T20:07:30.560Z,84.29
2019-02-02T20:10:35.003Z,84.14
2019-02-02T20:13:39.712Z,83.95
2019-02-02T20:16:44.159Z,83.77
2019-02-02T20:19:48.615Z,84.00
2019-02-02T20:22:53.920Z,84.10
2019-02-02T20:25:58.952Z,84.41
2019-02-02T20:29:03.956Z,84.38
2019-02-02T20:32:08.414Z,84.39
2019-02-02T20:35:15.574Z,84.17
2019-02-02T20:38:20.010Z,84.29
2019-02-02T20:41:24.450Z,84.20
2019-02-02T20:44:28.894Z,84.22
2019-02-02T20:47:33.403Z,84.44
2019-02-02T20:50:38.235Z,84.64
2019-02-02T20:53:42.633Z,84.55
2019-02-02T20:56:47.068Z,84.45
2019-02-02T20:59:51.511Z,84.58
2019-02-02T21:02:56.644Z,84.74
2019-02-02T21:06:01.374Z,84.61
2019-02-02T21:09:07.527Z,84.59
2019-02-02T21:12:12.289Z,84.54
2019-02-02T21:15:17.695Z,84.55
2019-02-02T21:18:22.284Z,84.36
2019-02-02T21:21:27.089Z,84.54
2019-02-02T21:24:31.568Z,84.39
2019-02-02T21:27:36.012Z,83.69
2019-02-02T21:30:40.499Z,83.67
2019-02-02T21:33:45.287Z,84.10
2019-02-02T21:36:49.754Z,83.86
2019-02-02T21:39:54.199Z,84.02
2019-02-02T21:42:58.810Z,84.11
2019-02-02T21:46:03.428Z,84.16
2019-02-02T21:49:08.318Z,83.82
2019-02-02T21:52:12.763Z,83.55
2019-02-02T21:55:23.991Z,83.24
2019-02-02T21:58:28.500Z,83.22
2019-02-02T22:01:33.271Z,83.54
2019-02-02T22:04:37.740Z,83.97
2019-02-02T22:07:42.536Z,84.17
2019-02-02T22:10:47.264Z,83.89
2019-02-02T22:13:51.733Z,83.71
2019-02-02T22:16:56.550Z,83.61
2019-02-02T22:20:01.069Z,82.90
2019-02-02T22:23:05.882Z,83.13
2019-02-02T22:26:10.654Z,83.37
2019-02-02T22:29:15.107Z,83.64
2019-02-02T22:32:19.560Z,83.28
2019-02-02T22:35:24.161Z,83.56
2019-02-02T22:38:28.671Z,84.41
2019-02-02T22:41:33.118Z,84.33
2019-02-02T22:44:37.744Z,84.54
2019-02-02T22:48:02.254Z,84.85
2019-02-02T22:51:07.191Z,84.57
2019-02-02T22:54:11.642Z,84.34
2019-02-02T22:57:16.161Z,83.90
2019-02-02T23:00:50.065Z,84.11
2019-02-02T23:04:10.663Z,84.35
2019-02-02T23:07:22.777Z,84.50
2019-02-02T23:10:49.821Z,84.86
2019-02-02T23:14:13.142Z,84.89
2019-02-02T23:17:17.588Z,84.98
2019-02-02T23:20:22.334Z,85.19
2019-02-02T23:23:26.786Z,85.60
2019-02-02T23:26:31.321Z,85.55
2019-02-02T23:29:36.028Z,85.72
2019-02-02T23:32:40.747Z,85.76
2019-02-02T23:35:45.208Z,85.59
2019-02-02T23:38:50.020Z,85.81
2019-02-02T23:41:54.848Z,85.51
2019-02-02T23:44:59.282Z,85.34
2019-02-02T23:48:03.722Z,84.39
2019-02-02T23:51:08.164Z,84.24
2019-02-02T23:54:12.598Z,83.85
2019-02-02T23:57:17.046Z,83.35
